Flight Track Log - Related Links

Times and Time Zones

All times are in EDT time to prevent confusion due to time zone crossing. See the DAL3974 flight status page for this flight to view local times or setup timezone preferences in your user account.


Time Position Orientation Groundspeed Altitude Reporting Facility
EDT Latitude Longitude Course Direction KTS MPH feet Rate Location/Type
Mon 10:49:34 PM 44.8600 -93.1600 221° Southwest 169 194 3,000  Level Minneapolis Center
Mon 10:50:36 PM 44.8158 -93.1128 143° Southeast 224 258 5,100 2,390 Climbing Minneapolis Center
Mon 10:51:00 PM 44.7559 -93.5837 235° Southwest  Level Estimated
Mon 10:51:37 PM 44.7419 -93.1100 178° South 260 299 7,900  Level Minneapolis Center
Mon 10:52:00 PM 44.7136 -93.7039 230° Southwest  Level Estimated
Mon 10:52:38 PM 44.6956 -93.2056 236° Southwest 285 328 10,500  Level Minneapolis Center
Mon 10:53:00 PM 44.6712 -93.8240 235° Southwest  Level Estimated
Mon 10:53:51 PM 44.6544 -93.3528 249° West 337 388 11,700  Level Minneapolis Center
Mon 10:54:00 PM 44.5992 -93.9119 221° Southwest  Level FlightAware Approximate
Mon 10:54:52 PM 44.6167 -93.4856 248° West 361 415 13,000  Level Minneapolis Center
Mon 10:55:53 PM 44.5775 -93.6192 248° West 370 426 14,500 1,463 Climbing Minneapolis Center
Mon 10:56:55 PM 44.5369 -93.7542 247° West 376 433 16,000 1,366 Climbing Minneapolis Center
Mon 10:57:56 PM 44.4869 -93.9197 247° West 385 443 17,300 1,033 Climbing Minneapolis Center
Mon 10:58:57 PM 44.4439 -94.0611 247° West 393 452 18,100 934 Climbing Minneapolis Center
Mon 10:59:58 PM 44.4019 -94.2036 248° West 396 456 19,200 787 Climbing Minneapolis Center
Mon 11:00:59 PM 44.3558 -94.3494 246° West 405 466 19,700 393 Climbing Minneapolis Center
Mon 11:02:00 PM 44.3100 -94.4986 247° West 416 479 20,000 148 Climbing Minneapolis Center
Mon 11:03:01 PM 44.2658 -94.6417 247° West 431 496 20,000  Level Minneapolis Center
Mon 11:04:03 PM 44.2072 -94.8294 247° West 440 506 20,000  Level Minneapolis Center
Mon 11:06:05 PM 44.1103 -95.1372 246° West 433 498 20,000  Level Minneapolis Center
Mon 11:07:06 PM 44.0606 -95.2894 246° West 433 498 20,000 -765 Level Minneapolis Center
Mon 11:09:00 PM 44.0103 -95.5059 252° West  Level FlightAware Approximate
Mon 11:11:11 PM 43.8656 -95.8922 243° Southwest 419 482 16,100  Level Minneapolis Center
Mon 11:12:12 PM 43.8203 -96.0325 246° West 404 465 13,700 -2,164 Descending Minneapolis Center
Mon 11:13:13 PM 43.7836 -96.1714 250° West 386 444 11,700 -1,918 Descending Minneapolis Center
Mon 11:14:14 PM 43.7686 -96.2856 260° West 314 361 9,800 -2,262 Descending Minneapolis Center
Mon 11:15:15 PM 43.7539 -96.3908 259° West 294 338 7,100 -2,213 Descending Minneapolis Center
Mon 11:16:00 PM 43.7478 -96.2615 243° Southwest  Level FlightAware Approximate
Mon 11:16:16 PM 43.7397 -96.4922 259° West 281 323 5,300  Level Minneapolis Center
Mon 11:17:30 PM 43.7258 -96.6128 261° West 271 312 3,200 -1,022 Descending Minneapolis Center
Mon 11:18:31 PM 43.7142 -96.7283 262° West 262 302 3,000 -98 Descending Minneapolis Center
Mon 11:19:32 PM 43.7017 -96.8006 257° West 226 260 3,000 -49 Level Minneapolis Center
Mon 11:20:33 PM 43.6578 -96.7869 167° South 181 208 2,900 -443 Descending Minneapolis Center
Mon 11:21:34 PM 43.6253 -96.7656 155° Southeast 153 176 2,100 -689 Descending Minneapolis Center
Mon 11:22:35 PM 43.5944 -96.7478 157° South 135 155 1,500 -590 Descending Minneapolis Center

Login

Don't have an account? Register now (free) for customized features, flight alerts, and more!